createdAt,value
2018-09-10T00:00:01.429Z,47.79
2018-09-10T00:02:30.173Z,48.08
2018-09-10T00:04:58.962Z,47.96
2018-09-10T00:07:27.706Z,47.77
2018-09-10T00:09:56.488Z,47.76
2018-09-10T00:12:25.409Z,47.79
2018-09-10T00:14:54.215Z,47.64
2018-09-10T00:17:23.212Z,47.83
2018-09-10T00:19:52.209Z,47.81
2018-09-10T00:22:20.934Z,48.08
2018-09-10T00:24:49.667Z,47.65
2018-09-10T00:27:18.370Z,48.32
2018-09-10T00:29:47.095Z,48.08
2018-09-10T00:32:15.815Z,47.75
2018-09-10T00:34:44.557Z,47.87
2018-09-10T00:37:13.275Z,48.25
2018-09-10T00:39:42.014Z,47.61
2018-09-10T00:42:10.747Z,47.68
2018-09-10T00:44:39.491Z,47.50
2018-09-10T00:47:08.218Z,47.43
2018-09-10T00:49:37.067Z,47.96
2018-09-10T00:52:05.800Z,47.71
2018-09-10T00:54:34.544Z,47.18
2018-09-10T00:57:03.388Z,47.50
2018-09-10T00:59:32.171Z,47.57
2018-09-10T01:02:00.866Z,48.04
2018-09-10T01:04:29.633Z,47.62
2018-09-10T01:06:58.414Z,48.04
2018-09-10T01:09:27.214Z,48.15
2018-09-10T01:11:56.003Z,47.62
2018-09-10T01:14:24.711Z,47.33
2018-09-10T01:16:53.561Z,47.91
2018-09-10T01:19:22.259Z,47.78
2018-09-10T01:21:51.035Z,47.30
2018-09-10T01:24:19.731Z,47.35
2018-09-10T01:26:48.444Z,47.77
2018-09-10T01:29:17.286Z,47.80
2018-09-10T01:31:46.020Z,47.61
2018-09-10T01:34:19.858Z,47.96
2018-09-10T01:36:48.566Z,47.32
2018-09-10T01:39:17.324Z,47.53
2018-09-10T01:41:46.070Z,47.80
2018-09-10T01:44:14.845Z,47.20
2018-09-10T01:46:43.566Z,47.25
2018-09-10T01:49:12.318Z,47.38
2018-09-10T01:51:41.340Z,47.80
2018-09-10T01:54:10.110Z,47.38
2018-09-10T01:56:38.844Z,47.43
2018-09-10T01:59:07.602Z,47.85
2018-09-10T02:01:36.310Z,48.11
2018-09-10T02:04:05.107Z,47.98
2018-09-10T02:06:33.825Z,47.59
2018-09-10T02:09:02.695Z,48.04
2018-09-10T02:11:31.542Z,47.62
2018-09-10T02:14:00.252Z,47.92
2018-09-10T02:16:29.032Z,47.32
2018-09-10T02:18:57.722Z,47.93
2018-09-10T02:21:26.491Z,47.23
2018-09-10T02:23:55.193Z,47.85
2018-09-10T02:26:23.890Z,47.33
2018-09-10T02:28:52.622Z,47.76
2018-09-10T02:31:21.376Z,47.85
2018-09-10T02:33:50.115Z,47.83
2018-09-10T02:36:18.936Z,47.33
2018-09-10T02:38:48.213Z,47.90
2018-09-10T02:41:16.973Z,47.97
2018-09-10T02:43:45.761Z,47.42
2018-09-10T02:46:14.693Z,47.83
2018-09-10T02:48:44.320Z,47.67
2018-09-10T02:51:12.979Z,47.75
2018-09-10T02:53:41.677Z,47.91
2018-09-10T02:56:10.456Z,47.41
2018-09-10T02:58:39.335Z,47.41
2018-09-10T03:01:08.058Z,47.32
2018-09-10T03:03:36.926Z,47.61
2018-09-10T03:06:05.873Z,47.87
2018-09-10T03:08:34.605Z,47.82
2018-09-10T03:11:03.355Z,47.27
2018-09-10T03:13:32.046Z,47.82
2018-09-10T03:16:00.825Z,47.33
2018-09-10T03:18:29.532Z,47.70
2018-09-10T03:20:58.284Z,47.85
2018-09-10T03:23:27.009Z,47.76
2018-09-10T03:25:55.768Z,47.69
2018-09-10T03:28:24.487Z,47.75
2018-09-10T03:30:53.265Z,47.25
2018-09-10T03:33:22.089Z,47.45
2018-09-10T03:35:50.769Z,47.33
2018-09-10T03:38:19.539Z,46.97
2018-09-10T03:40:48.729Z,47.63
2018-09-10T03:43:17.487Z,47.55
2018-09-10T03:45:46.204Z,47.57
2018-09-10T03:48:14.881Z,47.09
2018-09-10T03:50:43.649Z,46.92
2018-09-10T03:53:12.430Z,47.14
2018-09-10T03:55:41.157Z,47.10
2018-09-10T03:58:10.218Z,47.51
2018-09-10T04:00:38.950Z,47.00
2018-09-10T04:03:07.666Z,47.47
2018-09-10T04:05:36.426Z,47.53
2018-09-10T04:08:05.479Z,46.96
2018-09-10T04:10:34.524Z,47.46
2018-09-10T04:13:03.361Z,47.00
2018-09-10T04:15:32.416Z,47.12
2018-09-10T04:18:01.194Z,47.40
2018-09-10T04:20:29.909Z,47.33
2018-09-10T04:22:58.849Z,47.24
2018-09-10T04:25:27.591Z,47.22
2018-09-10T04:27:56.337Z,46.81
2018-09-10T04:30:25.405Z,46.63
2018-09-10T04:32:54.338Z,46.97
2018-09-10T04:35:23.391Z,46.91
2018-09-10T04:37:52.277Z,46.68
2018-09-10T04:40:21.047Z,46.55
2018-09-10T04:42:49.966Z,46.69
2018-09-10T04:45:18.670Z,47.11
2018-09-10T04:47:47.401Z,46.40
2018-09-10T04:50:16.145Z,46.20
2018-09-10T04:52:44.868Z,46.67
2018-09-10T04:55:13.630Z,46.41
2018-09-10T04:57:49.749Z,46.74
2018-09-10T05:00:18.667Z,46.80
2018-09-10T05:02:47.437Z,46.87
2018-09-10T05:05:16.240Z,46.71
2018-09-10T05:07:45.002Z,46.26
2018-09-10T05:10:13.764Z,46.63
2018-09-10T05:12:43.482Z,46.70
2018-09-10T05:15:12.566Z,46.21
2018-09-10T05:17:41.473Z,46.07
2018-09-10T05:20:10.406Z,46.43
2018-09-10T05:22:39.163Z,45.87
2018-09-10T05:25:07.886Z,46.12
2018-09-10T05:27:36.641Z,46.14
2018-09-10T05:30:05.625Z,46.52
2018-09-10T05:32:34.378Z,46.44
2018-09-10T05:35:03.130Z,46.15
2018-09-10T05:37:31.882Z,46.13
2018-09-10T05:40:00.647Z,46.13
2018-09-10T05:42:29.399Z,46.88
2018-09-10T05:44:58.121Z,46.46
2018-09-10T05:47:26.928Z,46.32
2018-09-10T05:49:55.681Z,46.38
2018-09-10T05:52:24.406Z,46.88
2018-09-10T05:54:53.129Z,47.28
2018-09-10T05:57:21.948Z,46.90
2018-09-10T05:59:50.694Z,47.21
2018-09-10T06:02:19.447Z,47.80
2018-09-10T06:04:48.219Z,47.30
2018-09-10T06:07:17.010Z,47.37
2018-09-10T06:09:45.775Z,48.04
2018-09-10T06:12:14.508Z,47.52
2018-09-10T06:14:43.178Z,47.48
2018-09-10T06:17:11.911Z,47.40
2018-09-10T06:19:40.664Z,47.58
2018-09-10T06:22:09.416Z,47.61
2018-09-10T06:24:38.168Z,47.36
2018-09-10T06:27:06.943Z,47.76
2018-09-10T06:29:35.679Z,47.98
2018-09-10T06:32:04.444Z,47.73
2018-09-10T06:34:33.178Z,47.26
2018-09-10T06:37:01.931Z,47.73
2018-09-10T06:39:30.676Z,47.63
2018-09-10T06:41:59.453Z,47.73
2018-09-10T06:44:28.164Z,47.14
2018-09-10T06:46:56.916Z,47.49
2018-09-10T06:49:25.604Z,47.32
2018-09-10T06:51:54.368Z,47.15
2018-09-10T06:54:23.073Z,47.14
2018-09-10T06:56:51.803Z,47.61
2018-09-10T06:59:20.524Z,47.06
2018-09-10T07:01:49.338Z,47.66
2018-09-10T07:04:18.215Z,47.66
2018-09-10T07:06:46.990Z,47.06
2018-09-10T07:09:15.759Z,47.06
2018-09-10T07:11:44.468Z,47.05
2018-09-10T07:14:13.222Z,47.43
2018-09-10T07:16:42.005Z,46.76
2018-09-10T07:19:10.781Z,47.43
2018-09-10T07:21:39.525Z,47.09
2018-09-10T07:24:08.269Z,46.96
2018-09-10T07:26:36.994Z,46.53
2018-09-10T07:29:05.700Z,46.94
2018-09-10T07:31:34.504Z,47.07
2018-09-10T07:34:03.235Z,47.12
2018-09-10T07:36:32.045Z,47.05
2018-09-10T07:39:00.773Z,47.00
2018-09-10T07:41:29.545Z,46.92
2018-09-10T07:43:58.471Z,46.89
2018-09-10T07:46:27.088Z,46.99
2018-09-10T07:48:55.876Z,46.32
2018-09-10T07:51:24.629Z,46.85
2018-09-10T07:53:53.378Z,46.74
2018-09-10T07:56:22.131Z,46.44
2018-09-10T07:58:50.886Z,46.10
2018-09-10T08:01:19.647Z,46.74
2018-09-10T08:03:48.437Z,46.76
2018-09-10T08:06:17.199Z,46.20
2018-09-10T08:08:45.947Z,46.29
2018-09-10T08:11:15.237Z,46.66
2018-09-10T08:13:43.986Z,46.10
2018-09-10T08:16:12.772Z,46.56
2018-09-10T08:18:41.528Z,46.13
2018-09-10T08:21:10.266Z,46.50
2018-09-10T08:23:39.000Z,46.52
2018-09-10T08:26:07.764Z,45.98
2018-09-10T08:28:36.565Z,46.37
2018-09-10T08:31:05.418Z,45.99
2018-09-10T08:33:34.200Z,46.38
2018-09-10T08:36:03.044Z,45.89
2018-09-10T08:38:31.836Z,46.39
2018-09-10T08:41:00.638Z,45.94
2018-09-10T08:43:29.376Z,45.71
2018-09-10T08:45:58.070Z,45.65
2018-09-10T08:48:26.849Z,45.77
2018-09-10T08:50:55.556Z,45.66
2018-09-10T08:53:24.300Z,45.80
2018-09-10T08:55:53.362Z,46.16
2018-09-10T08:58:22.006Z,45.61
2018-09-10T09:00:50.754Z,45.82
2018-09-10T09:03:19.515Z,46.16
2018-09-10T09:05:48.307Z,45.54
2018-09-10T09:08:17.033Z,46.11
2018-09-10T09:10:45.874Z,45.87
2018-09-10T09:13:14.617Z,46.00
2018-09-10T09:15:43.478Z,45.55
2018-09-10T09:18:12.238Z,46.03
2018-09-10T09:20:40.972Z,46.07
2018-09-10T09:23:09.833Z,45.44
2018-09-10T09:25:38.598Z,45.40
2018-09-10T09:28:07.294Z,45.38
2018-09-10T09:30:36.120Z,45.49
2018-09-10T09:33:05.171Z,45.94
2018-09-10T09:35:39.254Z,45.44
2018-09-10T09:38:13.158Z,45.96
2018-09-10T09:40:47.170Z,45.48
2018-09-10T09:43:21.025Z,45.43
2018-09-10T09:45:54.894Z,45.77
2018-09-10T09:48:23.797Z,45.20
2018-09-10T09:50:52.567Z,45.44
2018-09-10T09:53:21.365Z,45.75
2018-09-10T09:55:50.096Z,45.29
2018-09-10T09:58:18.885Z,45.41
2018-09-10T10:00:56.861Z,45.43
2018-09-10T10:03:30.861Z,45.35
2018-09-10T10:05:59.679Z,45.88
2018-09-10T10:08:28.418Z,45.22
2018-09-10T10:10:57.178Z,45.89
2018-09-10T10:13:25.892Z,45.57
2018-09-10T10:15:55.267Z,45.22
2018-09-10T10:18:23.982Z,45.13
2018-09-10T10:20:52.731Z,45.15
2018-09-10T10:23:21.690Z,45.73
2018-09-10T10:25:50.511Z,45.15
2018-09-10T10:28:19.240Z,45.72
2018-09-10T10:30:48.065Z,45.04
2018-09-10T10:33:16.787Z,45.63
2018-09-10T10:35:45.530Z,45.11
2018-09-10T10:38:14.261Z,45.20
2018-09-10T10:40:43.013Z,45.75
2018-09-10T10:43:11.812Z,45.19
2018-09-10T10:45:40.587Z,45.43
2018-09-10T10:48:09.336Z,45.61
2018-09-10T10:50:38.152Z,45.15
2018-09-10T10:53:06.930Z,45.62
2018-09-10T10:55:36.730Z,45.17
2018-09-10T10:58:05.909Z,45.84
2018-09-10T11:00:34.669Z,45.28
2018-09-10T11:03:03.741Z,45.20
2018-09-10T11:05:32.538Z,45.23
2018-09-10T11:08:01.283Z,45.16
2018-09-10T11:10:30.023Z,45.52
2018-09-10T11:12:58.752Z,45.00
2018-09-10T11:15:27.480Z,45.44
2018-09-10T11:17:56.273Z,45.01
2018-09-10T11:20:25.058Z,45.46
2018-09-10T11:22:53.796Z,45.44
2018-09-10T11:25:22.567Z,45.10
2018-09-10T11:27:51.533Z,45.08
2018-09-10T11:30:20.266Z,45.12
2018-09-10T11:32:49.060Z,45.36
2018-09-10T11:35:17.746Z,45.09
2018-09-10T11:37:46.469Z,45.16
2018-09-10T11:40:15.306Z,45.10
2018-09-10T11:42:44.063Z,45.10
2018-09-10T11:45:12.854Z,45.04
2018-09-10T11:47:41.555Z,45.52
2018-09-10T11:50:10.267Z,45.14
2018-09-10T11:52:39.015Z,45.29
2018-09-10T11:55:07.806Z,45.40
2018-09-10T11:57:36.643Z,45.41
2018-09-10T12:00:05.679Z,45.01
2018-09-10T12:02:34.400Z,45.65
2018-09-10T12:05:03.179Z,45.20
2018-09-10T12:07:31.970Z,45.69
2018-09-10T12:10:00.715Z,45.64
2018-09-10T12:12:29.429Z,44.99
2018-09-10T12:14:58.262Z,45.28
2018-09-10T12:17:27.210Z,45.68
2018-09-10T12:19:56.016Z,45.04
2018-09-10T12:22:24.961Z,45.76
2018-09-10T12:24:53.697Z,45.48
2018-09-10T12:27:22.462Z,45.12
2018-09-10T12:29:51.223Z,45.40
2018-09-10T12:32:20.078Z,45.63
2018-09-10T12:34:48.809Z,45.07
2018-09-10T12:37:17.513Z,45.05
2018-09-10T12:39:46.318Z,45.06
2018-09-10T12:42:14.986Z,45.10
2018-09-10T12:44:43.786Z,45.65
2018-09-10T12:47:12.483Z,45.17
2018-09-10T12:49:41.167Z,45.40
2018-09-10T12:52:09.881Z,45.70
2018-09-10T12:54:38.602Z,45.65
2018-09-10T12:57:07.453Z,45.42
2018-09-10T12:59:36.301Z,45.19
2018-09-10T13:02:05.095Z,45.28
2018-09-10T13:04:33.838Z,45.76
2018-09-10T13:07:04.014Z,45.84
2018-09-10T13:09:32.774Z,45.84
2018-09-10T13:12:01.661Z,45.89
2018-09-10T13:14:30.399Z,45.40
2018-09-10T13:16:59.103Z,45.44
2018-09-10T13:19:27.818Z,45.43
2018-09-10T13:21:56.558Z,45.95
2018-09-10T13:24:25.289Z,45.98
2018-09-10T13:26:54.237Z,45.78
2018-09-10T13:29:22.946Z,45.76
2018-09-10T13:31:51.681Z,45.83
2018-09-10T13:34:20.416Z,46.09
2018-09-10T13:36:49.111Z,46.02
2018-09-10T13:39:17.866Z,45.66
2018-09-10T13:41:46.619Z,45.90
2018-09-10T13:44:15.316Z,45.92
2018-09-10T13:46:44.061Z,45.98
2018-09-10T13:49:12.763Z,46.13
2018-09-10T13:51:41.501Z,46.17
2018-09-10T13:54:10.254Z,46.17
2018-09-10T13:56:38.920Z,45.90
2018-09-10T13:59:07.967Z,45.58
2018-09-10T14:01:36.726Z,46.13
2018-09-10T14:04:05.952Z,46.13
2018-09-10T14:06:34.626Z,46.14
2018-09-10T14:09:03.463Z,46.15
2018-09-10T14:11:32.190Z,45.76
2018-09-10T14:14:00.937Z,46.21
2018-09-10T14:16:29.618Z,45.62
2018-09-10T14:18:58.398Z,46.13
2018-09-10T14:21:27.100Z,46.15
2018-09-10T14:23:55.890Z,45.59
2018-09-10T14:26:24.649Z,46.24
2018-09-10T14:28:53.351Z,45.70
2018-09-10T14:31:22.043Z,46.48
2018-09-10T14:33:50.780Z,46.21
2018-09-10T14:36:19.547Z,46.11
2018-09-10T14:38:48.325Z,46.13
2018-09-10T14:41:17.040Z,46.28
2018-09-10T14:43:45.801Z,46.17
2018-09-10T14:46:15.471Z,46.18
2018-09-10T14:48:44.148Z,45.87
2018-09-10T14:51:12.894Z,46.20
2018-09-10T14:53:41.643Z,45.79
2018-09-10T14:56:10.388Z,45.63
2018-09-10T14:58:39.169Z,45.66
2018-09-10T15:01:07.876Z,45.87
2018-09-10T15:03:36.632Z,46.23
2018-09-10T15:06:05.529Z,45.67
2018-09-10T15:08:34.277Z,46.14
2018-09-10T15:11:03.003Z,46.22
2018-09-10T15:13:31.758Z,46.28
2018-09-10T15:16:00.488Z,46.17
2018-09-10T15:18:29.394Z,46.19
2018-09-10T15:20:58.084Z,46.19
2018-09-10T15:23:26.888Z,46.28
2018-09-10T15:25:55.638Z,45.77
2018-09-10T15:28:24.494Z,46.06
2018-09-10T15:30:53.259Z,45.97
2018-09-10T15:33:21.971Z,46.18
2018-09-10T15:35:50.668Z,46.20
2018-09-10T15:38:19.411Z,46.32
2018-09-10T15:40:48.283Z,46.36
2018-09-10T15:43:17.062Z,46.35
2018-09-10T15:45:45.757Z,46.34
2018-09-10T15:48:14.534Z,46.42
2018-09-10T15:50:43.298Z,45.85
2018-09-10T15:53:12.088Z,46.46
2018-09-10T15:55:40.856Z,46.47
2018-09-10T15:58:09.633Z,46.02
2018-09-10T16:00:38.375Z,46.52
2018-09-10T16:03:07.199Z,46.48
2018-09-10T16:05:35.921Z,45.98
2018-09-10T16:08:04.649Z,46.09
2018-09-10T16:10:33.477Z,46.09
2018-09-10T16:13:02.221Z,46.64
2018-09-10T16:15:31.083Z,46.59
2018-09-10T16:17:59.808Z,46.01
2018-09-10T16:20:28.576Z,46.73
2018-09-10T16:22:57.360Z,46.63
2018-09-10T16:25:26.143Z,46.82
2018-09-10T16:27:54.873Z,46.26
2018-09-10T16:30:23.689Z,46.73
2018-09-10T16:32:52.516Z,46.75
2018-09-10T16:35:21.225Z,46.84
2018-09-10T16:37:50.149Z,46.39
2018-09-10T16:40:19.114Z,46.65
2018-09-10T16:42:47.853Z,46.64
2018-09-10T16:45:16.655Z,46.18
2018-09-10T16:47:45.378Z,46.33
2018-09-10T16:50:14.174Z,46.62
2018-09-10T16:52:42.913Z,46.57
2018-09-10T16:55:11.660Z,46.48
2018-09-10T16:57:40.423Z,46.55
2018-09-10T17:00:09.223Z,46.23
2018-09-10T17:02:38.201Z,46.29
2018-09-10T17:05:07.079Z,46.47
2018-09-10T17:07:36.029Z,46.01
2018-09-10T17:10:04.899Z,45.96
2018-09-10T17:12:33.759Z,46.55
2018-09-10T17:15:02.750Z,46.13
2018-09-10T17:17:31.415Z,45.97
2018-09-10T17:20:00.212Z,46.38
2018-09-10T17:22:28.999Z,46.44
2018-09-10T17:24:57.772Z,45.87
2018-09-10T17:27:26.483Z,46.37
2018-09-10T17:29:55.212Z,46.44
2018-09-10T17:32:23.968Z,46.52
2018-09-10T17:34:52.722Z,46.28
2018-09-10T17:37:21.521Z,46.45
2018-09-10T17:39:50.384Z,46.40
2018-09-10T17:42:19.204Z,46.52
2018-09-10T17:44:48.003Z,46.50
2018-09-10T17:47:16.928Z,46.23
2018-09-10T17:49:45.547Z,46.34
2018-09-10T17:52:14.287Z,46.85
2018-09-10T17:54:43.064Z,46.45
2018-09-10T17:57:11.778Z,46.95
2018-09-10T17:59:40.508Z,46.50
2018-09-10T18:02:09.222Z,46.94
2018-09-10T18:04:37.995Z,47.00
2018-09-10T18:07:06.813Z,47.08
2018-09-10T18:09:35.573Z,46.50
2018-09-10T18:12:05.056Z,47.16
2018-09-10T18:14:33.802Z,47.12
2018-09-10T18:17:02.999Z,47.05
2018-09-10T18:19:31.738Z,46.66
2018-09-10T18:22:00.458Z,46.68
2018-09-10T18:24:29.216Z,46.70
2018-09-10T18:26:58.037Z,46.74
2018-09-10T18:29:26.707Z,47.30
2018-09-10T18:31:55.577Z,47.33
2018-09-10T18:34:24.308Z,47.33
2018-09-10T18:36:53.046Z,46.78
2018-09-10T18:39:21.796Z,47.42
2018-09-10T18:41:50.601Z,47.15
2018-09-10T18:44:19.449Z,47.46
2018-09-10T18:46:48.164Z,47.36
2018-09-10T18:49:17.024Z,47.33
2018-09-10T18:51:45.709Z,46.83
2018-09-10T18:54:14.442Z,47.34
2018-09-10T18:56:43.222Z,46.77
2018-09-10T18:59:12.065Z,46.69
2018-09-10T19:01:40.875Z,47.35
2018-09-10T19:04:09.628Z,47.43
2018-09-10T19:06:38.431Z,47.32
2018-09-10T19:09:09.618Z,47.31
2018-09-10T19:11:38.523Z,46.77
2018-09-10T19:14:07.396Z,47.36
2018-09-10T19:16:36.345Z,46.85
2018-09-10T19:19:05.331Z,47.30
2018-09-10T19:21:34.134Z,46.77
2018-09-10T19:24:03.332Z,47.05
2018-09-10T19:26:32.090Z,46.91
2018-09-10T19:29:00.923Z,46.88
2018-09-10T19:31:29.743Z,47.21
2018-09-10T19:33:58.523Z,47.22
2018-09-10T19:36:27.327Z,46.92
2018-09-10T19:38:56.048Z,47.08
2018-09-10T19:41:24.770Z,47.10
2018-09-10T19:43:53.546Z,46.66
2018-09-10T19:46:22.243Z,46.94
2018-09-10T19:48:50.976Z,47.13
2018-09-10T19:51:20.018Z,46.71
2018-09-10T19:53:48.792Z,47.09
2018-09-10T19:56:17.516Z,46.46
2018-09-10T19:58:46.250Z,47.07
2018-09-10T20:01:15.035Z,46.52
2018-09-10T20:03:43.788Z,47.29
2018-09-10T20:06:12.574Z,47.35
2018-09-10T20:08:41.307Z,47.38
2018-09-10T20:11:10.148Z,46.84
2018-09-10T20:13:39.066Z,46.91
2018-09-10T20:16:07.872Z,47.52
2018-09-10T20:18:36.955Z,47.76
2018-09-10T20:21:05.939Z,48.34
2018-09-10T20:23:34.670Z,48.82
2018-09-10T20:26:03.688Z,49.46
2018-09-10T20:28:32.530Z,49.17
2018-09-10T20:31:02.577Z,49.42
2018-09-10T20:33:35.471Z,49.35
2018-09-10T20:36:04.438Z,49.55
2018-09-10T20:38:33.237Z,50.02
2018-09-10T20:41:02.020Z,49.66
2018-09-10T20:43:31.317Z,50.37
2018-09-10T20:46:00.092Z,49.96
2018-09-10T20:48:28.819Z,50.63
2018-09-10T20:50:58.383Z,50.79
2018-09-10T20:53:27.725Z,50.77
2018-09-10T20:55:56.489Z,50.89
2018-09-10T20:58:25.308Z,50.32
2018-09-10T21:00:54.056Z,50.42
2018-09-10T21:03:22.828Z,50.86
2018-09-10T21:05:51.876Z,50.49
2018-09-10T21:08:20.669Z,50.41
2018-09-10T21:10:50.145Z,51.05
2018-09-10T21:13:18.891Z,51.09
2018-09-10T21:15:47.602Z,51.01
2018-09-10T21:18:16.296Z,51.13
2018-09-10T21:20:45.073Z,51.47
2018-09-10T21:23:13.735Z,51.22
2018-09-10T21:25:42.583Z,51.25
2018-09-10T21:28:11.356Z,51.25
2018-09-10T21:30:40.081Z,50.72
2018-09-10T21:33:08.799Z,51.30
2018-09-10T21:35:37.595Z,51.28
2018-09-10T21:38:06.436Z,50.71
2018-09-10T21:40:35.194Z,51.34
2018-09-10T21:43:04.169Z,50.83
2018-09-10T21:45:32.997Z,51.53
2018-09-10T21:48:01.700Z,51.71
2018-09-10T21:50:30.642Z,51.58
2018-09-10T21:52:59.554Z,51.19
2018-09-10T21:55:28.623Z,51.77
2018-09-10T21:57:57.345Z,51.73
2018-09-10T22:00:26.108Z,51.79
2018-09-10T22:03:11.090Z,51.72
2018-09-10T22:05:39.910Z,51.04
2018-09-10T22:08:08.726Z,51.16
2018-09-10T22:10:37.639Z,51.08
2018-09-10T22:13:06.385Z,51.70
2018-09-10T22:15:35.169Z,51.25
2018-09-10T22:18:03.989Z,51.14
2018-09-10T22:20:32.720Z,51.64
2018-09-10T22:23:01.513Z,51.04
2018-09-10T22:25:30.202Z,51.70
2018-09-10T22:27:59.082Z,51.17
2018-09-10T22:30:27.799Z,51.66
2018-09-10T22:32:56.517Z,51.29
2018-09-10T22:35:25.272Z,50.81
2018-09-10T22:37:54.002Z,51.05
2018-09-10T22:40:22.769Z,51.57
2018-09-10T22:42:51.542Z,51.59
2018-09-10T22:45:20.609Z,51.48
2018-09-10T22:47:49.393Z,50.82
2018-09-10T22:50:18.090Z,51.15
2018-09-10T22:52:46.795Z,51.31
2018-09-10T22:55:15.567Z,51.17
2018-09-10T22:57:44.243Z,50.79
2018-09-10T23:00:12.930Z,51.11
2018-09-10T23:02:41.686Z,51.30
2018-09-10T23:05:10.398Z,51.04
2018-09-10T23:07:39.126Z,51.29
2018-09-10T23:10:07.921Z,50.76
2018-09-10T23:12:36.613Z,50.59
2018-09-10T23:15:05.867Z,51.19
2018-09-10T23:17:34.604Z,50.95
2018-09-10T23:20:03.299Z,51.06
2018-09-10T23:22:31.966Z,50.46
2018-09-10T23:25:00.629Z,51.08
2018-09-10T23:27:29.454Z,50.51
2018-09-10T23:29:58.259Z,50.64
2018-09-10T23:32:26.938Z,50.25
2018-09-10T23:34:55.630Z,50.84
2018-09-10T23:37:24.319Z,50.45
2018-09-10T23:39:53.056Z,51.02
2018-09-10T23:42:21.962Z,51.10
2018-09-10T23:44:51.010Z,50.58
2018-09-10T23:47:19.870Z,50.60
2018-09-10T23:49:48.537Z,50.55
2018-09-10T23:52:17.346Z,50.57
2018-09-10T23:54:46.074Z,51.27
2018-09-10T23:57:14.753Z,51.15
2018-09-10T23:59:43.432Z,51.20
